sensor_id;sensor_type;location;lat;lon;timestamp;P1;durP1;ratioP1;P2;durP2;ratioP2
22230;SDS011;11284;48.086;-1.652;2023-01-31T00:01:15;12.45;;;3.42;;
22230;SDS011;11284;48.086;-1.652;2023-01-31T00:03:41;10.32;;;2.97;;
22230;SDS011;11284;48.086;-1.652;2023-01-31T00:06:11;10.85;;;3.20;;
22230;SDS011;11284;48.086;-1.652;2023-01-31T00:08:38;11.93;;;3.42;;
22230;SDS011;11284;48.086;-1.652;2023-01-31T00:11:04;15.30;;;3.17;;
22230;SDS011;11284;48.086;-1.652;2023-01-31T00:13:30;11.32;;;2.97;;
22230;SDS011;11284;48.086;-1.652;2023-01-31T00:15:56;9.30;;;2.70;;
22230;SDS011;11284;48.086;-1.652;2023-01-31T00:18:22;13.82;;;3.08;;
22230;SDS011;11284;48.086;-1.652;2023-01-31T00:20:48;13.13;;;3.35;;
22230;SDS011;11284;48.086;-1.652;2023-01-31T00:23:14;13.23;;;2.83;;
22230;SDS011;11284;48.086;-1.652;2023-01-31T00:25:40;10.07;;;3.00;;
22230;SDS011;11284;48.086;-1.652;2023-01-31T00:28:06;13.82;;;3.60;;
22230;SDS011;11284;48.086;-1.652;2023-01-31T00:30:33;14.30;;;2.67;;
22230;SDS011;11284;48.086;-1.652;2023-01-31T00:32:59;11.57;;;2.63;;
22230;SDS011;11284;48.086;-1.652;2023-01-31T00:35:25;10.82;;;2.80;;
22230;SDS011;11284;48.086;-1.652;2023-01-31T00:37:51;12.50;;;3.30;;
22230;SDS011;11284;48.086;-1.652;2023-01-31T00:40:17;13.80;;;2.97;;
22230;SDS011;11284;48.086;-1.652;2023-01-31T00:42:43;12.57;;;3.15;;
22230;SDS011;11284;48.086;-1.652;2023-01-31T00:45:09;13.93;;;3.63;;
22230;SDS011;11284;48.086;-1.652;2023-01-31T00:47:35;13.50;;;3.00;;
22230;SDS011;11284;48.086;-1.652;2023-01-31T00:50:02;11.38;;;2.70;;
22230;SDS011;11284;48.086;-1.652;2023-01-31T00:52:28;12.57;;;3.10;;
22230;SDS011;11284;48.086;-1.652;2023-01-31T00:54:54;11.20;;;2.95;;
22230;SDS011;11284;48.086;-1.652;2023-01-31T00:57:20;15.10;;;3.22;;
22230;SDS011;11284;48.086;-1.652;2023-01-31T00:59:46;12.85;;;3.28;;
22230;SDS011;11284;48.086;-1.652;2023-01-31T01:02:13;12.70;;;3.20;;
22230;SDS011;11284;48.086;-1.652;2023-01-31T01:04:39;11.32;;;3.20;;
22230;SDS011;11284;48.086;-1.652;2023-01-31T01:07:05;10.32;;;2.70;;
22230;SDS011;11284;48.086;-1.652;2023-01-31T01:09:31;12.75;;;2.90;;
22230;SDS011;11284;48.086;-1.652;2023-01-31T01:11:57;11.57;;;3.03;;
22230;SDS011;11284;48.086;-1.652;2023-01-31T01:14:23;14.65;;;2.88;;
22230;SDS011;11284;48.086;-1.652;2023-01-31T01:16:49;9.30;;;2.30;;
22230;SDS011;11284;48.086;-1.652;2023-01-31T01:19:16;9.98;;;2.85;;
22230;SDS011;11284;48.086;-1.652;2023-01-31T01:21:42;9.27;;;3.03;;
22230;SDS011;11284;48.086;-1.652;2023-01-31T01:24:12;11.23;;;3.15;;
22230;SDS011;11284;48.086;-1.652;2023-01-31T01:26:38;12.65;;;3.35;;
22230;SDS011;11284;48.086;-1.652;2023-01-31T01:29:04;13.07;;;3.58;;
22230;SDS011;11284;48.086;-1.652;2023-01-31T01:31:31;12.27;;;3.28;;
22230;SDS011;11284;48.086;-1.652;2023-01-31T01:34:07;9.07;;;2.58;;
22230;SDS011;11284;48.086;-1.652;2023-01-31T01:36:34;14.13;;;3.00;;
22230;SDS011;11284;48.086;-1.652;2023-01-31T01:39:01;12.27;;;2.80;;
22230;SDS011;11284;48.086;-1.652;2023-01-31T01:41:27;13.00;;;2.65;;
22230;SDS011;11284;48.086;-1.652;2023-01-31T01:43:55;12.57;;;2.60;;
22230;SDS011;11284;48.086;-1.652;2023-01-31T01:49:41;11.07;;;2.45;;
22230;SDS011;11284;48.086;-1.652;2023-01-31T01:52:06;14.70;;;2.75;;
22230;SDS011;11284;48.086;-1.652;2023-01-31T01:57:34;12.90;;;2.70;;
22230;SDS011;11284;48.086;-1.652;2023-01-31T02:00:13;10.27;;;2.42;;
22230;SDS011;11284;48.086;-1.652;2023-01-31T02:02:40;12.07;;;2.60;;
22230;SDS011;11284;48.086;-1.652;2023-01-31T02:05:06;11.63;;;2.85;;
22230;SDS011;11284;48.086;-1.652;2023-01-31T02:07:33;13.60;;;2.83;;
22230;SDS011;11284;48.086;-1.652;2023-01-31T02:10:04;12.52;;;3.55;;
22230;SDS011;11284;48.086;-1.652;2023-01-31T02:12:31;12.23;;;2.60;;
22230;SDS011;11284;48.086;-1.652;2023-01-31T02:14:57;11.27;;;2.63;;
22230;SDS011;11284;48.086;-1.652;2023-01-31T02:17:24;13.32;;;2.70;;
22230;SDS011;11284;48.086;-1.652;2023-01-31T02:20:02;13.23;;;2.80;;
22230;SDS011;11284;48.086;-1.652;2023-01-31T02:22:35;9.35;;;2.78;;
22230;SDS011;11284;48.086;-1.652;2023-01-31T02:40:42;12.13;;;2.85;;
22230;SDS011;11284;48.086;-1.652;2023-01-31T02:43:19;12.75;;;2.63;;
22230;SDS011;11284;48.086;-1.652;2023-01-31T02:48:35;14.13;;;3.10;;
22230;SDS011;11284;48.086;-1.652;2023-01-31T02:53:33;11.70;;;3.03;;
22230;SDS011;11284;48.086;-1.652;2023-01-31T02:56:02;10.48;;;2.53;;
22230;SDS011;11284;48.086;-1.652;2023-01-31T02:58:46;15.63;;;3.00;;
22230;SDS011;11284;48.086;-1.652;2023-01-31T03:01:14;14.50;;;3.38;;
22230;SDS011;11284;48.086;-1.652;2023-01-31T03:03:41;12.30;;;3.05;;
22230;SDS011;11284;48.086;-1.652;2023-01-31T03:08:33;10.85;;;2.78;;
22230;SDS011;11284;48.086;-1.652;2023-01-31T03:11:00;14.05;;;3.00;;
22230;SDS011;11284;48.086;-1.652;2023-01-31T03:19:45;14.25;;;3.15;;
22230;SDS011;11284;48.086;-1.652;2023-01-31T03:24:08;15.45;;;3.40;;
22230;SDS011;11284;48.086;-1.652;2023-01-31T03:26:34;13.57;;;3.83;;
22230;SDS011;11284;48.086;-1.652;2023-01-31T03:29:01;16.00;;;3.22;;
22230;SDS011;11284;48.086;-1.652;2023-01-31T03:31:37;12.63;;;3.20;;
22230;SDS011;11284;48.086;-1.652;2023-01-31T03:34:05;12.32;;;3.22;;
22230;SDS011;11284;48.086;-1.652;2023-01-31T03:36:34;12.70;;;3.50;;
22230;SDS011;11284;48.086;-1.652;2023-01-31T03:39:14;11.05;;;3.20;;
22230;SDS011;11284;48.086;-1.652;2023-01-31T03:41:49;13.20;;;3.05;;
22230;SDS011;11284;48.086;-1.652;2023-01-31T03:44:22;12.35;;;3.20;;
22230;SDS011;11284;48.086;-1.652;2023-01-31T03:46:50;11.85;;;3.28;;
22230;SDS011;11284;48.086;-1.652;2023-01-31T03:49:18;13.38;;;3.28;;
22230;SDS011;11284;48.086;-1.652;2023-01-31T03:51:47;10.95;;;3.17;;
22230;SDS011;11284;48.086;-1.652;2023-01-31T03:54:27;13.07;;;3.33;;
22230;SDS011;11284;48.086;-1.652;2023-01-31T03:57:06;10.88;;;2.75;;
22230;SDS011;11284;48.086;-1.652;2023-01-31T03:59:34;12.05;;;3.10;;
22230;SDS011;11284;48.086;-1.652;2023-01-31T04:02:01;12.98;;;2.85;;
22230;SDS011;11284;48.086;-1.652;2023-01-31T04:04:30;12.20;;;2.90;;
22230;SDS011;11284;48.086;-1.652;2023-01-31T04:06:57;13.10;;;2.70;;
22230;SDS011;11284;48.086;-1.652;2023-01-31T04:09:24;11.55;;;2.80;;
22230;SDS011;11284;48.086;-1.652;2023-01-31T04:11:50;11.55;;;3.25;;
22230;SDS011;11284;48.086;-1.652;2023-01-31T04:14:16;10.63;;;2.60;;
22230;SDS011;11284;48.086;-1.652;2023-01-31T04:16:43;16.83;;;3.20;;
22230;SDS011;11284;48.086;-1.652;2023-01-31T04:19:09;12.20;;;3.03;;
22230;SDS011;11284;48.086;-1.652;2023-01-31T04:21:35;12.90;;;2.92;;
22230;SDS011;11284;48.086;-1.652;2023-01-31T04:24:01;11.82;;;3.33;;
22230;SDS011;11284;48.086;-1.652;2023-01-31T04:26:27;11.63;;;3.03;;
22230;SDS011;11284;48.086;-1.652;2023-01-31T04:28:53;12.88;;;2.42;;
22230;SDS011;11284;48.086;-1.652;2023-01-31T04:31:19;11.10;;;2.55;;
22230;SDS011;11284;48.086;-1.652;2023-01-31T04:33:45;10.73;;;2.50;;
22230;SDS011;11284;48.086;-1.652;2023-01-31T04:36:11;12.52;;;2.42;;
22230;SDS011;11284;48.086;-1.652;2023-01-31T04:38:37;9.73;;;2.20;;
22230;SDS011;11284;48.086;-1.652;2023-01-31T04:41:03;11.70;;;2.95;;
22230;SDS011;11284;48.086;-1.652;2023-01-31T04:43:30;15.00;;;2.55;;
22230;SDS011;11284;48.086;-1.652;2023-01-31T04:45:56;11.23;;;2.40;;
22230;SDS011;11284;48.086;-1.652;2023-01-31T04:48:22;12.85;;;2.67;;
22230;SDS011;11284;48.086;-1.652;2023-01-31T04:50:48;10.10;;;2.13;;
22230;SDS011;11284;48.086;-1.652;2023-01-31T04:53:14;12.75;;;2.80;;
22230;SDS011;11284;48.086;-1.652;2023-01-31T04:55:40;14.77;;;2.95;;
22230;SDS011;11284;48.086;-1.652;2023-01-31T04:58:06;13.30;;;2.35;;
22230;SDS011;11284;48.086;-1.652;2023-01-31T05:00:32;13.65;;;2.80;;
22230;SDS011;11284;48.086;-1.652;2023-01-31T05:02:58;14.48;;;2.63;;
22230;SDS011;11284;48.086;-1.652;2023-01-31T05:05:25;11.77;;;2.80;;
22230;SDS011;11284;48.086;-1.652;2023-01-31T05:07:51;12.90;;;2.97;;
22230;SDS011;11284;48.086;-1.652;2023-01-31T05:10:17;10.52;;;2.42;;
22230;SDS011;11284;48.086;-1.652;2023-01-31T05:12:43;10.65;;;2.53;;
22230;SDS011;11284;48.086;-1.652;2023-01-31T05:15:09;14.30;;;2.92;;
22230;SDS011;11284;48.086;-1.652;2023-01-31T05:17:36;12.10;;;2.72;;
22230;SDS011;11284;48.086;-1.652;2023-01-31T05:20:02;10.20;;;2.58;;
22230;SDS011;11284;48.086;-1.652;2023-01-31T05:22:28;16.15;;;2.67;;
22230;SDS011;11284;48.086;-1.652;2023-01-31T05:24:54;8.50;;;2.40;;
22230;SDS011;11284;48.086;-1.652;2023-01-31T05:27:20;14.38;;;2.80;;
22230;SDS011;11284;48.086;-1.652;2023-01-31T05:29:46;10.77;;;2.45;;
22230;SDS011;11284;48.086;-1.652;2023-01-31T05:32:14;12.65;;;2.60;;
22230;SDS011;11284;48.086;-1.652;2023-01-31T05:34:41;12.60;;;2.58;;
22230;SDS011;11284;48.086;-1.652;2023-01-31T05:37:07;10.48;;;3.00;;
22230;SDS011;11284;48.086;-1.652;2023-01-31T05:39:33;7.72;;;2.47;;
22230;SDS011;11284;48.086;-1.652;2023-01-31T05:42:00;10.50;;;2.63;;
22230;SDS011;11284;48.086;-1.652;2023-01-31T05:44:26;12.23;;;2.50;;
22230;SDS011;11284;48.086;-1.652;2023-01-31T05:46:52;12.27;;;2.40;;
22230;SDS011;11284;48.086;-1.652;2023-01-31T05:49:18;12.30;;;2.60;;
22230;SDS011;11284;48.086;-1.652;2023-01-31T05:51:44;10.80;;;2.72;;
22230;SDS011;11284;48.086;-1.652;2023-01-31T05:54:10;13.32;;;2.72;;
22230;SDS011;11284;48.086;-1.652;2023-01-31T05:56:36;12.00;;;2.85;;
22230;SDS011;11284;48.086;-1.652;2023-01-31T05:59:03;14.05;;;3.10;;
22230;SDS011;11284;48.086;-1.652;2023-01-31T06:01:29;12.90;;;3.15;;
22230;SDS011;11284;48.086;-1.652;2023-01-31T06:03:55;11.50;;;2.75;;
22230;SDS011;11284;48.086;-1.652;2023-01-31T06:06:21;11.90;;;2.60;;
22230;SDS011;11284;48.086;-1.652;2023-01-31T06:08:47;12.20;;;2.65;;
22230;SDS011;11284;48.086;-1.652;2023-01-31T06:11:13;12.18;;;2.42;;
22230;SDS011;11284;48.086;-1.652;2023-01-31T06:13:40;12.90;;;2.78;;
22230;SDS011;11284;48.086;-1.652;2023-01-31T06:16:07;11.40;;;2.42;;
22230;SDS011;11284;48.086;-1.652;2023-01-31T06:18:33;10.15;;;2.72;;
22230;SDS011;11284;48.086;-1.652;2023-01-31T06:20:59;9.50;;;2.80;;
22230;SDS011;11284;48.086;-1.652;2023-01-31T06:23:26;14.52;;;3.15;;
22230;SDS011;11284;48.086;-1.652;2023-01-31T06:25:52;14.77;;;3.00;;
22230;SDS011;11284;48.086;-1.652;2023-01-31T06:28:19;10.65;;;2.85;;
22230;SDS011;11284;48.086;-1.652;2023-01-31T06:30:45;14.82;;;3.78;;
22230;SDS011;11284;48.086;-1.652;2023-01-31T06:33:11;14.07;;;2.80;;
22230;SDS011;11284;48.086;-1.652;2023-01-31T06:35:38;12.98;;;2.92;;
22230;SDS011;11284;48.086;-1.652;2023-01-31T06:38:04;13.57;;;2.67;;
22230;SDS011;11284;48.086;-1.652;2023-01-31T06:40:31;13.52;;;2.70;;
22230;SDS011;11284;48.086;-1.652;2023-01-31T06:42:57;10.38;;;2.72;;
22230;SDS011;11284;48.086;-1.652;2023-01-31T06:45:23;12.50;;;2.92;;
22230;SDS011;11284;48.086;-1.652;2023-01-31T06:47:50;11.85;;;2.75;;
22230;SDS011;11284;48.086;-1.652;2023-01-31T06:50:16;13.65;;;2.85;;
22230;SDS011;11284;48.086;-1.652;2023-01-31T06:52:42;11.05;;;2.63;;
22230;SDS011;11284;48.086;-1.652;2023-01-31T06:55:08;11.20;;;2.83;;
22230;SDS011;11284;48.086;-1.652;2023-01-31T06:57:34;13.73;;;2.92;;
22230;SDS011;11284;48.086;-1.652;2023-01-31T07:00:00;13.20;;;2.92;;
22230;SDS011;11284;48.086;-1.652;2023-01-31T07:02:26;15.07;;;2.70;;
22230;SDS011;11284;48.086;-1.652;2023-01-31T07:04:52;12.25;;;2.67;;
22230;SDS011;11284;48.086;-1.652;2023-01-31T07:07:19;13.57;;;3.03;;
22230;SDS011;11284;48.086;-1.652;2023-01-31T07:09:45;11.57;;;3.00;;
22230;SDS011;11284;48.086;-1.652;2023-01-31T07:12:11;15.70;;;3.10;;
22230;SDS011;11284;48.086;-1.652;2023-01-31T07:14:37;16.58;;;3.30;;
22230;SDS011;11284;48.086;-1.652;2023-01-31T07:17:03;12.88;;;3.00;;
22230;SDS011;11284;48.086;-1.652;2023-01-31T07:19:29;14.85;;;3.60;;
22230;SDS011;11284;48.086;-1.652;2023-01-31T07:21:55;12.30;;;3.17;;
22230;SDS011;11284;48.086;-1.652;2023-01-31T07:24:21;15.25;;;3.00;;
22230;SDS011;11284;48.086;-1.652;2023-01-31T07:26:47;14.75;;;3.30;;
22230;SDS011;11284;48.086;-1.652;2023-01-31T07:29:16;17.45;;;3.70;;
22230;SDS011;11284;48.086;-1.652;2023-01-31T07:31:42;14.48;;;3.05;;
22230;SDS011;11284;48.086;-1.652;2023-01-31T07:34:08;15.77;;;3.35;;
22230;SDS011;11284;48.086;-1.652;2023-01-31T07:36:34;15.15;;;3.20;;
22230;SDS011;11284;48.086;-1.652;2023-01-31T07:39:00;14.35;;;2.97;;
22230;SDS011;11284;48.086;-1.652;2023-01-31T07:41:26;16.25;;;3.78;;
22230;SDS011;11284;48.086;-1.652;2023-01-31T07:43:52;10.43;;;2.97;;
22230;SDS011;11284;48.086;-1.652;2023-01-31T07:46:18;16.27;;;3.85;;
22230;SDS011;11284;48.086;-1.652;2023-01-31T07:48:44;13.85;;;3.65;;
22230;SDS011;11284;48.086;-1.652;2023-01-31T07:51:10;12.80;;;3.15;;
22230;SDS011;11284;48.086;-1.652;2023-01-31T07:53:37;13.77;;;3.30;;
22230;SDS011;11284;48.086;-1.652;2023-01-31T07:56:12;16.52;;;3.50;;
22230;SDS011;11284;48.086;-1.652;2023-01-31T07:58:39;17.25;;;3.92;;
22230;SDS011;11284;48.086;-1.652;2023-01-31T08:01:06;14.57;;;3.78;;
22230;SDS011;11284;48.086;-1.652;2023-01-31T08:03:51;15.50;;;3.83;;
22230;SDS011;11284;48.086;-1.652;2023-01-31T08:06:17;19.13;;;4.38;;
22230;SDS011;11284;48.086;-1.652;2023-01-31T08:08:43;15.68;;;4.47;;
22230;SDS011;11284;48.086;-1.652;2023-01-31T08:11:10;14.88;;;4.22;;
22230;SDS011;11284;48.086;-1.652;2023-01-31T08:13:36;15.75;;;3.28;;
22230;SDS011;11284;48.086;-1.652;2023-01-31T08:16:03;12.27;;;3.10;;
22230;SDS011;11284;48.086;-1.652;2023-01-31T08:18:30;15.00;;;3.67;;
22230;SDS011;11284;48.086;-1.652;2023-01-31T08:20:56;14.02;;;3.95;;
22230;SDS011;11284;48.086;-1.652;2023-01-31T08:23:23;17.92;;;3.35;;
22230;SDS011;11284;48.086;-1.652;2023-01-31T08:25:49;12.65;;;3.50;;
22230;SDS011;11284;48.086;-1.652;2023-01-31T08:28:15;14.93;;;3.22;;
22230;SDS011;11284;48.086;-1.652;2023-01-31T08:30:41;15.23;;;3.40;;
22230;SDS011;11284;48.086;-1.652;2023-01-31T08:33:08;15.10;;;3.28;;
22230;SDS011;11284;48.086;-1.652;2023-01-31T08:35:34;11.20;;;3.25;;
22230;SDS011;11284;48.086;-1.652;2023-01-31T08:38:00;10.30;;;3.00;;
22230;SDS011;11284;48.086;-1.652;2023-01-31T08:40:26;14.77;;;3.28;;
22230;SDS011;11284;48.086;-1.652;2023-01-31T08:42:56;12.05;;;3.63;;
22230;SDS011;11284;48.086;-1.652;2023-01-31T08:45:23;16.85;;;3.80;;
22230;SDS011;11284;48.086;-1.652;2023-01-31T08:47:53;14.48;;;3.70;;
22230;SDS011;11284;48.086;-1.652;2023-01-31T08:50:19;15.75;;;3.33;;
22230;SDS011;11284;48.086;-1.652;2023-01-31T08:52:46;17.88;;;3.67;;
22230;SDS011;11284;48.086;-1.652;2023-01-31T08:55:12;16.55;;;3.47;;
22230;SDS011;11284;48.086;-1.652;2023-01-31T08:57:42;16.13;;;3.33;;
22230;SDS011;11284;48.086;-1.652;2023-01-31T09:00:10;11.50;;;2.70;;
22230;SDS011;11284;48.086;-1.652;2023-01-31T09:02:36;14.05;;;3.35;;
22230;SDS011;11284;48.086;-1.652;2023-01-31T09:05:02;13.57;;;3.63;;
22230;SDS011;11284;48.086;-1.652;2023-01-31T09:07:29;16.52;;;3.40;;
22230;SDS011;11284;48.086;-1.652;2023-01-31T09:09:55;12.50;;;3.40;;
22230;SDS011;11284;48.086;-1.652;2023-01-31T09:12:21;11.57;;;3.30;;
22230;SDS011;11284;48.086;-1.652;2023-01-31T09:14:49;14.50;;;3.35;;
22230;SDS011;11284;48.086;-1.652;2023-01-31T09:17:15;15.55;;;3.92;;
22230;SDS011;11284;48.086;-1.652;2023-01-31T09:19:41;14.35;;;3.30;;
22230;SDS011;11284;48.086;-1.652;2023-01-31T09:22:07;13.50;;;3.45;;
22230;SDS011;11284;48.086;-1.652;2023-01-31T09:24:33;14.95;;;3.80;;
22230;SDS011;11284;48.086;-1.652;2023-01-31T09:26:59;18.00;;;3.28;;
22230;SDS011;11284;48.086;-1.652;2023-01-31T09:29:25;12.07;;;3.10;;
22230;SDS011;11284;48.086;-1.652;2023-01-31T09:31:52;12.55;;;3.25;;
22230;SDS011;11284;48.086;-1.652;2023-01-31T09:34:18;12.32;;;2.80;;
22230;SDS011;11284;48.086;-1.652;2023-01-31T09:36:46;17.70;;;3.63;;
22230;SDS011;11284;48.086;-1.652;2023-01-31T09:39:12;12.63;;;3.35;;
22230;SDS011;11284;48.086;-1.652;2023-01-31T09:41:48;15.18;;;3.00;;
22230;SDS011;11284;48.086;-1.652;2023-01-31T09:47:20;12.63;;;3.47;;
22230;SDS011;11284;48.086;-1.652;2023-01-31T09:49:41;13.02;;;3.13;;
22230;SDS011;11284;48.086;-1.652;2023-01-31T09:52:08;14.95;;;3.60;;
22230;SDS011;11284;48.086;-1.652;2023-01-31T09:54:36;12.13;;;3.13;;
22230;SDS011;11284;48.086;-1.652;2023-01-31T10:02:14;11.15;;;2.80;;
22230;SDS011;11284;48.086;-1.652;2023-01-31T10:07:51;13.48;;;2.80;;
22230;SDS011;11284;48.086;-1.652;2023-01-31T10:12:44;13.65;;;2.88;;
22230;SDS011;11284;48.086;-1.652;2023-01-31T10:17:42;11.73;;;3.08;;
22230;SDS011;11284;48.086;-1.652;2023-01-31T10:20:31;11.07;;;2.97;;
22230;SDS011;11284;48.086;-1.652;2023-01-31T10:23:20;11.15;;;2.70;;
22230;SDS011;11284;48.086;-1.652;2023-01-31T10:26:09;14.98;;;3.75;;
22230;SDS011;11284;48.086;-1.652;2023-01-31T10:28:38;12.52;;;2.75;;
22230;SDS011;11284;48.086;-1.652;2023-01-31T10:36:08;10.80;;;2.83;;
22230;SDS011;11284;48.086;-1.652;2023-01-31T10:38:37;14.07;;;3.28;;
22230;SDS011;11284;48.086;-1.652;2023-01-31T10:41:16;9.55;;;2.35;;
22230;SDS011;11284;48.086;-1.652;2023-01-31T10:43:44;8.75;;;2.83;;
22230;SDS011;11284;48.086;-1.652;2023-01-31T10:46:12;13.27;;;3.35;;
22230;SDS011;11284;48.086;-1.652;2023-01-31T10:48:38;12.32;;;2.53;;
22230;SDS011;11284;48.086;-1.652;2023-01-31T10:58:42;10.93;;;2.90;;
22230;SDS011;11284;48.086;-1.652;2023-01-31T11:01:08;17.13;;;3.60;;
22230;SDS011;11284;48.086;-1.652;2023-01-31T11:03:39;7.88;;;2.88;;
22230;SDS011;11284;48.086;-1.652;2023-01-31T11:06:05;13.13;;;3.10;;
22230;SDS011;11284;48.086;-1.652;2023-01-31T11:10:59;12.13;;;2.92;;
22230;SDS011;11284;48.086;-1.652;2023-01-31T11:13:29;15.23;;;2.97;;
22230;SDS011;11284;48.086;-1.652;2023-01-31T11:15:55;11.57;;;2.80;;
22230;SDS011;11284;48.086;-1.652;2023-01-31T11:18:31;13.18;;;3.50;;
22230;SDS011;11284;48.086;-1.652;2023-01-31T11:20:58;12.60;;;3.00;;
22230;SDS011;11284;48.086;-1.652;2023-01-31T11:23:25;12.70;;;2.97;;
22230;SDS011;11284;48.086;-1.652;2023-01-31T11:25:53;10.93;;;2.97;;
22230;SDS011;11284;48.086;-1.652;2023-01-31T11:28:33;9.90;;;2.90;;
22230;SDS011;11284;48.086;-1.652;2023-01-31T11:31:00;11.82;;;3.08;;
22230;SDS011;11284;48.086;-1.652;2023-01-31T11:33:44;13.13;;;3.10;;
22230;SDS011;11284;48.086;-1.652;2023-01-31T11:36:18;10.38;;;2.60;;
22230;SDS011;11284;48.086;-1.652;2023-01-31T11:38:47;11.05;;;2.70;;
22230;SDS011;11284;48.086;-1.652;2023-01-31T11:41:32;12.05;;;3.00;;
22230;SDS011;11284;48.086;-1.652;2023-01-31T11:46:39;11.98;;;3.58;;
22230;SDS011;11284;48.086;-1.652;2023-01-31T11:49:13;14.98;;;3.35;;
22230;SDS011;11284;48.086;-1.652;2023-01-31T11:51:42;11.77;;;3.00;;
22230;SDS011;11284;48.086;-1.652;2023-01-31T11:54:10;11.90;;;2.97;;
22230;SDS011;11284;48.086;-1.652;2023-01-31T11:56:38;11.13;;;2.72;;
22230;SDS011;11284;48.086;-1.652;2023-01-31T11:59:04;9.55;;;2.67;;
22230;SDS011;11284;48.086;-1.652;2023-01-31T12:01:33;12.38;;;2.75;;
22230;SDS011;11284;48.086;-1.652;2023-01-31T12:04:02;12.40;;;3.00;;
22230;SDS011;11284;48.086;-1.652;2023-01-31T12:06:35;14.00;;;3.63;;
22230;SDS011;11284;48.086;-1.652;2023-01-31T12:14:01;11.68;;;2.70;;
22230;SDS011;11284;48.086;-1.652;2023-01-31T12:16:27;13.20;;;3.33;;
22230;SDS011;11284;48.086;-1.652;2023-01-31T12:26:56;12.88;;;2.65;;
22230;SDS011;11284;48.086;-1.652;2023-01-31T12:29:38;9.32;;;2.13;;
22230;SDS011;11284;48.086;-1.652;2023-01-31T12:32:08;9.57;;;2.28;;
22230;SDS011;11284;48.086;-1.652;2023-01-31T12:50:28;7.65;;;2.40;;
22230;SDS011;11284;48.086;-1.652;2023-01-31T12:53:09;13.80;;;2.20;;
22230;SDS011;11284;48.086;-1.652;2023-01-31T12:55:50;10.43;;;2.72;;
22230;SDS011;11284;48.086;-1.652;2023-01-31T13:00:57;11.57;;;2.20;;
22230;SDS011;11284;48.086;-1.652;2023-01-31T13:06:06;9.77;;;2.30;;
22230;SDS011;11284;48.086;-1.652;2023-01-31T13:08:39;8.13;;;2.30;;
22230;SDS011;11284;48.086;-1.652;2023-01-31T13:11:14;10.43;;;2.25;;
22230;SDS011;11284;48.086;-1.652;2023-01-31T13:13:42;8.95;;;2.05;;
22230;SDS011;11284;48.086;-1.652;2023-01-31T13:18:51;7.88;;;2.35;;
22230;SDS011;11284;48.086;-1.652;2023-01-31T13:21:20;9.10;;;1.88;;
22230;SDS011;11284;48.086;-1.652;2023-01-31T13:23:49;9.80;;;2.08;;
22230;SDS011;11284;48.086;-1.652;2023-01-31T13:26:17;10.60;;;2.25;;
22230;SDS011;11284;48.086;-1.652;2023-01-31T13:28:46;7.32;;;1.88;;
22230;SDS011;11284;48.086;-1.652;2023-01-31T13:31:16;13.07;;;2.72;;
22230;SDS011;11284;48.086;-1.652;2023-01-31T13:39:19;8.25;;;2.13;;
22230;SDS011;11284;48.086;-1.652;2023-01-31T13:41:47;10.15;;;2.17;;
22230;SDS011;11284;48.086;-1.652;2023-01-31T13:44:13;8.85;;;2.10;;
22230;SDS011;11284;48.086;-1.652;2023-01-31T13:46:51;9.00;;;2.17;;
22230;SDS011;11284;48.086;-1.652;2023-01-31T13:51:54;9.25;;;2.15;;
22230;SDS011;11284;48.086;-1.652;2023-01-31T13:57:06;10.00;;;1.70;;
22230;SDS011;11284;48.086;-1.652;2023-01-31T13:59:42;8.50;;;1.98;;
22230;SDS011;11284;48.086;-1.652;2023-01-31T14:02:17;7.00;;;1.90;;
22230;SDS011;11284;48.086;-1.652;2023-01-31T14:04:44;12.85;;;2.70;;
22230;SDS011;11284;48.086;-1.652;2023-01-31T14:12:34;8.10;;;2.08;;
22230;SDS011;11284;48.086;-1.652;2023-01-31T14:15:01;8.20;;;2.40;;
22230;SDS011;11284;48.086;-1.652;2023-01-31T14:27:17;11.80;;;2.38;;
22230;SDS011;11284;48.086;-1.652;2023-01-31T14:29:44;6.60;;;1.75;;
22230;SDS011;11284;48.086;-1.652;2023-01-31T14:32:15;9.85;;;2.20;;
22230;SDS011;11284;48.086;-1.652;2023-01-31T14:34:46;9.27;;;2.20;;
22230;SDS011;11284;48.086;-1.652;2023-01-31T14:37:27;11.43;;;2.17;;
22230;SDS011;11284;48.086;-1.652;2023-01-31T14:57:30;8.40;;;2.00;;
22230;SDS011;11284;48.086;-1.652;2023-01-31T15:07:27;12.07;;;2.13;;
22230;SDS011;11284;48.086;-1.652;2023-01-31T15:09:53;7.90;;;1.80;;
22230;SDS011;11284;48.086;-1.652;2023-01-31T15:15:22;7.90;;;2.17;;
22230;SDS011;11284;48.086;-1.652;2023-01-31T15:17:50;8.57;;;2.38;;
22230;SDS011;11284;48.086;-1.652;2023-01-31T15:20:18;11.48;;;1.98;;
22230;SDS011;11284;48.086;-1.652;2023-01-31T15:22:46;8.73;;;2.00;;
22230;SDS011;11284;48.086;-1.652;2023-01-31T15:25:20;5.80;;;1.77;;
22230;SDS011;11284;48.086;-1.652;2023-01-31T15:27:47;11.90;;;2.33;;
22230;SDS011;11284;48.086;-1.652;2023-01-31T15:30:17;9.55;;;2.90;;
22230;SDS011;11284;48.086;-1.652;2023-01-31T15:32:57;8.90;;;2.22;;
22230;SDS011;11284;48.086;-1.652;2023-01-31T15:35:31;8.85;;;2.25;;
22230;SDS011;11284;48.086;-1.652;2023-01-31T15:40:45;7.22;;;2.40;;
22230;SDS011;11284;48.086;-1.652;2023-01-31T15:43:20;9.90;;;2.45;;
22230;SDS011;11284;48.086;-1.652;2023-01-31T15:45:46;10.88;;;2.75;;
22230;SDS011;11284;48.086;-1.652;2023-01-31T15:48:17;9.25;;;2.45;;
22230;SDS011;11284;48.086;-1.652;2023-01-31T15:50:50;8.30;;;2.28;;
22230;SDS011;11284;48.086;-1.652;2023-01-31T15:53:16;10.52;;;2.55;;
22230;SDS011;11284;48.086;-1.652;2023-01-31T15:55:44;7.88;;;2.30;;
22230;SDS011;11284;48.086;-1.652;2023-01-31T15:58:16;8.35;;;2.47;;
22230;SDS011;11284;48.086;-1.652;2023-01-31T16:00:42;11.88;;;2.65;;
22230;SDS011;11284;48.086;-1.652;2023-01-31T16:03:16;8.85;;;2.60;;
22230;SDS011;11284;48.086;-1.652;2023-01-31T16:05:46;9.95;;;2.60;;
22230;SDS011;11284;48.086;-1.652;2023-01-31T16:08:49;7.05;;;2.22;;
22230;SDS011;11284;48.086;-1.652;2023-01-31T16:11:07;12.18;;;2.60;;
22230;SDS011;11284;48.086;-1.652;2023-01-31T16:13:34;7.53;;;2.33;;
22230;SDS011;11284;48.086;-1.652;2023-01-31T16:16:02;15.05;;;2.70;;
22230;SDS011;11284;48.086;-1.652;2023-01-31T16:18:28;8.50;;;2.40;;
22230;SDS011;11284;48.086;-1.652;2023-01-31T16:20:54;7.28;;;2.42;;
22230;SDS011;11284;48.086;-1.652;2023-01-31T16:23:31;10.55;;;2.25;;
22230;SDS011;11284;48.086;-1.652;2023-01-31T16:26:14;9.85;;;2.47;;
22230;SDS011;11284;48.086;-1.652;2023-01-31T16:28:42;14.75;;;6.75;;
22230;SDS011;11284;48.086;-1.652;2023-01-31T16:31:10;12.07;;;3.78;;
22230;SDS011;11284;48.086;-1.652;2023-01-31T16:33:37;11.18;;;3.03;;
22230;SDS011;11284;48.086;-1.652;2023-01-31T16:36:05;14.23;;;3.20;;
22230;SDS011;11284;48.086;-1.652;2023-01-31T16:38:32;11.77;;;3.60;;
22230;SDS011;11284;48.086;-1.652;2023-01-31T16:40:58;15.32;;;3.85;;
22230;SDS011;11284;48.086;-1.652;2023-01-31T16:43:30;11.00;;;3.60;;
22230;SDS011;11284;48.086;-1.652;2023-01-31T16:46:16;15.00;;;3.78;;
22230;SDS011;11284;48.086;-1.652;2023-01-31T16:48:43;11.90;;;4.03;;
22230;SDS011;11284;48.086;-1.652;2023-01-31T16:54:11;11.48;;;4.03;;
22230;SDS011;11284;48.086;-1.652;2023-01-31T16:56:38;12.32;;;3.40;;
22230;SDS011;11284;48.086;-1.652;2023-01-31T16:59:10;10.70;;;3.33;;
22230;SDS011;11284;48.086;-1.652;2023-01-31T17:01:53;11.30;;;3.75;;
22230;SDS011;11284;48.086;-1.652;2023-01-31T17:04:22;12.02;;;3.80;;
22230;SDS011;11284;48.086;-1.652;2023-01-31T17:06:50;9.85;;;3.20;;
22230;SDS011;11284;48.086;-1.652;2023-01-31T17:09:20;11.50;;;3.63;;
22230;SDS011;11284;48.086;-1.652;2023-01-31T17:11:47;10.00;;;3.75;;
22230;SDS011;11284;48.086;-1.652;2023-01-31T17:14:13;10.85;;;3.65;;
22230;SDS011;11284;48.086;-1.652;2023-01-31T17:16:39;11.20;;;3.70;;
22230;SDS011;11284;48.086;-1.652;2023-01-31T17:19:05;13.07;;;3.53;;